Time;durP1;ratioP1;P1;durP2;ratioP2;P2;SDS_P1;SDS_P2;PMS_P1;PMS_P2;Temp;Humidity;BMP_temperature;BMP_pressure;BME280_temperature;BME280_humidity;BME280_pressure;Samples;Min_cycle;Max_cycle;Signal;HPM_P1;HPM_P2
2022/12/10 00:04:53;;;;;;;7.75;6.50;;;10.60;81.80;;;;;;21255576;27;20059;-60
2022/12/10 00:14:57;;;;;;;5.57;4.57;;;10.70;81.60;;;;;;21255069;27;20130;-59
2022/12/10 00:25:01;;;;;;;10.13;9.07;;;10.70;81.60;;;;;;21254010;27;20043;-59
2022/12/10 00:35:05;;;;;;;6.80;5.20;;;10.70;82.00;;;;;;21252839;27;20051;-60
2022/12/10 00:45:07;;;;;;;6.43;5.00;;;10.70;81.90;;;;;;21252647;27;20066;-59
2022/12/10 00:55:10;;;;;;;6.65;5.28;;;10.60;82.10;;;;;;21251654;27;20503;-59
2022/12/10 01:05:13;;;;;;;6.93;5.60;;;10.50;82.30;;;;;;21251324;27;20081;-59
2022/12/10 01:15:19;;;;;;;6.00;4.75;;;10.50;82.20;;;;;;21249480;27;20411;-59
2022/12/10 01:25:28;;;;;;;7.10;5.03;;;10.50;82.50;;;;;;21249816;27;20387;-59
2022/12/10 01:35:37;;;;;;;10.15;7.40;;;10.50;82.70;;;;;;21247986;27;20082;-58
2022/12/10 01:45:47;;;;;;;8.13;6.32;;;10.60;82.30;;;;;;21248054;27;20376;-60
2022/12/10 01:55:55;;;;;;;6.03;4.88;;;10.70;82.30;;;;;;21248723;27;20055;-60
2022/12/10 02:06:42;;;;;;;5.40;3.40;;;10.70;82.30;;;;;;21246818;27;20058;-58
2022/12/10 02:17:01;;;;;;;6.07;4.57;;;10.70;81.80;;;;;;21246295;28;20047;-59
2022/12/10 02:27:26;;;;;;;5.85;4.55;;;10.60;82.50;;;;;;21251100;27;20119;-58
2022/12/10 02:37:50;;;;;;;;;;;10.60;82.30;;;;;;21263270;27;20111;-58
2022/12/10 02:48:13;;;;;;;8.02;5.72;;;10.60;82.50;;;;;;21261868;27;19919;-60
2022/12/10 02:58:54;;;;;;;6.00;5.40;;;10.70;82.60;;;;;;21261546;27;20055;-59
2022/12/10 03:09:23;;;;;;;7.32;5.68;;;10.60;82.80;;;;;;21261140;27;20047;-59
2022/12/10 03:19:48;;;;;;;9.10;7.25;;;10.60;83.10;;;;;;21260242;27;20359;-59
2022/12/10 03:30:03;;;;;;;8.17;6.83;;;10.70;83.30;;;;;;21259796;27;20483;-59
2022/12/10 03:40:25;;;;;;;10.40;8.50;;;10.70;83.30;;;;;;21257357;27;20470;-58
2022/12/10 03:50:43;;;;;;;12.13;8.02;;;10.70;83.40;;;;;;21257289;27;20095;-58
2022/12/10 04:00:46;;;;;;;8.93;8.02;;;10.70;83.70;;;;;;21255804;27;20047;-59
2022/12/10 04:10:52;;;;;;;2.90;2.00;;;10.70;83.70;;;;;;21255611;27;20333;-58
2022/12/10 04:31:16;;;;;;;2.08;1.83;;;10.80;83.50;;;;;;21253749;27;20055;-58
2022/12/10 04:41:22;;;;;;;2.50;1.98;;;10.80;83.40;;;;;;21252383;27;20059;-59
2022/12/10 04:51:44;;;;;;;7.88;6.60;;;10.80;83.40;;;;;;21252923;27;20401;-58
2022/12/10 05:01:48;;;;;;;11.33;9.70;;;10.80;83.30;;;;;;21251504;27;20059;-59
2022/12/10 05:11:50;;;;;;;14.40;11.25;;;10.80;83.30;;;;;;21250756;27;20138;-58
2022/12/10 05:32:33;;;;;;;16.92;11.95;;;10.70;83.50;;;;;;21249359;27;20047;-59
2022/12/10 05:42:54;;;;;;;20.00;14.43;;;10.70;83.30;;;;;;21234931;27;20464;-59
2022/12/10 05:53:17;;;;;;;20.20;12.60;;;10.70;83.30;;;;;;21248714;27;20047;-57
2022/12/10 06:03:22;;;;;;;12.73;9.20;;;10.70;83.30;;;;;;21212333;27;20050;-59
2022/12/10 06:13:25;;;;;;;18.83;12.57;;;10.60;83.30;;;;;;21247505;27;20423;-59
2022/12/10 06:23:29;;;;;;;19.85;12.60;;;10.60;83.50;;;;;;21246454;27;20050;-58
2022/12/10 06:33:33;;;;;;;19.45;12.32;;;10.60;83.10;;;;;;21244778;27;20050;-59
2022/12/10 06:43:36;;;;;;;17.23;11.20;;;10.40;83.30;;;;;;21227261;27;20049;-58
2022/12/10 06:53:38;;;;;;;18.30;11.73;;;10.30;83.60;;;;;;21245456;28;20444;-59
2022/12/10 07:03:41;;;;;;;18.60;12.23;;;10.20;83.30;;;;;;21245245;27;20043;-58
2022/12/10 07:13:43;;;;;;;21.20;13.20;;;10.20;83.30;;;;;;21247541;27;20035;-59
2022/12/10 07:23:46;;;;;;;17.17;11.65;;;10.20;83.30;;;;;;21259095;27;20126;-58
2022/12/10 07:33:50;;;;;;;21.10;12.60;;;10.10;83.70;;;;;;21258067;27;20062;-58
2022/12/10 07:43:52;;;;;;;18.10;10.07;;;10.10;83.30;;;;;;21258458;27;20104;-59
2022/12/10 07:53:54;;;;;;;24.20;12.98;;;10.00;82.80;;;;;;21256686;27;20055;-59
2022/12/10 08:03:56;;;;;;;26.05;13.85;;;10.00;83.20;;;;;;21255896;27;20043;-59
2022/12/10 08:13:58;;;;;;;23.88;12.98;;;10.00;83.50;;;;;;21254211;27;20383;-57
2022/12/10 08:24:00;;;;;;;20.65;11.80;;;10.10;83.00;;;;;;21253487;27;20043;-59
2022/12/10 08:34:02;;;;;;;23.73;12.10;;;10.10;82.50;;;;;;21253621;27;20055;-59
2022/12/10 08:44:04;;;;;;;22.20;12.40;;;10.20;81.70;;;;;;21253923;27;20122;-61
2022/12/10 08:54:06;;;;;;;24.15;13.85;;;10.20;82.00;;;;;;21252566;27;20482;-59
2022/12/10 09:04:07;;;;;;;22.55;12.93;;;10.20;81.90;;;;;;21250776;27;20051;-60
2022/12/10 09:14:09;;;;;;;23.88;13.88;;;10.30;81.50;;;;;;21249998;27;20130;-60
2022/12/10 09:24:11;;;;;;;24.05;13.20;;;10.50;81.10;;;;;;21249988;27;20061;-59
2022/12/10 09:34:12;;;;;;;18.08;10.23;;;10.70;81.20;;;;;;21248222;27;20093;-58
2022/12/10 09:44:32;;;;;;;17.77;10.60;;;10.90;79.50;;;;;;21248726;27;20050;-60
2022/12/10 09:54:49;;;;;;;12.93;9.27;;;11.10;78.40;;;;;;21247783;27;20140;-59
2022/12/10 10:05:15;;;;;;;10.43;7.18;;;11.30;77.60;;;;;;21247917;27;20044;-58
2022/12/10 10:15:21;;;;;;;11.00;7.95;;;11.40;76.70;;;;;;21247316;27;20502;-58
2022/12/10 10:25:23;;;;;;;14.38;9.90;;;11.50;75.80;;;;;;21246667;28;20050;-60
2022/12/10 10:35:41;;;;;;;8.15;5.28;;;11.50;75.70;;;;;;21227872;28;20453;-58
2022/12/10 10:45:48;;;;;;;13.90;9.95;;;11.70;75.30;;;;;;21227777;27;20044;-61
2022/12/10 10:55:52;;;;;;;6.85;4.70;;;11.70;74.40;;;;;;21261918;27;20096;-58
2022/12/10 11:05:55;;;;;;;8.45;6.18;;;12.10;74.70;;;;;;21261239;27;20047;-57
2022/12/10 11:16:10;;;;;;;7.75;5.75;;;12.30;73.10;;;;;;21260818;27;20088;-58
2022/12/10 11:26:18;;;;;;;2.08;0.80;;;12.60;72.40;;;;;;21259525;27;20050;-59
2022/12/10 11:36:35;;;;;;;4.07;1.00;;;12.80;68.70;;;;;;21258429;27;20210;-60
2022/12/10 11:47:03;;;;;;;1.58;0.85;;;13.10;68.30;;;;;;21257366;27;20066;-59
2022/12/10 11:57:19;;;;;;;1.80;0.82;;;13.20;66.90;;;;;;21183721;27;20043;-59
2022/12/10 12:07:30;;;;;;;1.70;0.80;;;14.00;64.10;;;;;;21151182;28;20067;-59
2022/12/10 12:17:43;;;;;;;2.90;1.15;;;13.70;65.10;;;;;;21180578;27;20040;-60
2022/12/10 12:27:53;;;;;;;3.22;1.10;;;13.80;69.40;;;;;;21195703;27;20128;-56
2022/12/10 12:38:06;;;;;;;2.65;0.90;;;14.60;66.30;;;;;;21210130;27;20039;-58
2022/12/10 12:48:46;;;;;;;2.60;1.88;;;14.90;64.10;;;;;;21168639;27;20075;-58
2022/12/10 12:59:06;;;;;;;7.82;2.10;;;14.50;63.90;;;;;;21167687;28;20082;-56
2022/12/10 13:09:11;;;;;;;6.60;4.15;;;14.30;65.20;;;;;;21167112;28;20127;-57
2022/12/10 13:19:19;;;;;;;7.07;2.50;;;14.30;65.60;;;;;;21165662;28;20043;-58
2022/12/10 13:29:26;;;;;;;1.13;0.70;;;14.20;65.90;;;;;;21165430;28;20089;-62
2022/12/10 13:39:35;;;;;;;3.75;0.90;;;14.20;61.10;;;;;;21145559;28;20130;-58
2022/12/10 13:50:03;;;;;;;1.77;0.90;;;14.30;57.80;;;;;;21163113;28;20050;-59
2022/12/10 14:00:22;;;;;;;2.50;1.00;;;14.30;56.70;;;;;;21162363;28;20059;-60
2022/12/10 14:10:31;;;;;;;1.55;0.90;;;14.40;58.40;;;;;;21161333;28;20059;-58
2022/12/10 14:20:35;;;;;;;2.80;1.20;;;14.30;62.90;;;;;;21161654;28;20048;-61
2022/12/10 14:30:44;;;;;;;3.00;1.70;;;14.20;65.10;;;;;;21180541;28;20052;-61
2022/12/10 14:40:46;;;;;;;1.92;1.02;;;14.10;64.70;;;;;;21264226;27;20053;-60
2022/12/10 14:50:48;;;;;;;3.55;1.80;;;14.10;64.90;;;;;;21263136;27;20039;-59
2022/12/10 15:00:49;;;;;;;2.45;1.50;;;14.20;65.80;;;;;;21263000;27;20054;-59
2022/12/10 15:10:55;;;;;;;5.93;2.85;;;13.90;65.10;;;;;;21261121;27;20158;-59
2022/12/10 15:21:24;;;;;;;2.72;1.50;;;13.90;66.00;;;;;;21260803;27;20055;-57
2022/12/10 15:31:25;;;;;;;4.47;1.60;;;13.70;66.20;;;;;;21256706;27;20081;-58
2022/12/10 15:41:39;;;;;;;2.35;1.70;;;13.60;65.40;;;;;;21258668;27;20402;-62
2022/12/10 15:51:41;;;;;;;3.83;2.10;;;13.50;67.10;;;;;;21257168;27;20061;-58
2022/12/10 16:01:42;;;;;;;5.47;2.40;;;13.50;68.10;;;;;;21258087;27;20073;-58
2022/12/10 16:11:44;;;;;;;2.72;2.28;;;13.20;69.30;;;;;;21257027;27;20066;-59
2022/12/10 16:21:48;;;;;;;3.17;2.38;;;13.30;69.60;;;;;;21255586;27;20076;-59
2022/12/10 16:31:49;;;;;;;3.03;2.20;;;13.20;70.00;;;;;;21254833;27;20047;-60
2022/12/10 16:41:53;;;;;;;4.40;2.83;;;13.20;70.90;;;;;;21253782;27;20047;-59
2022/12/10 16:51:55;;;;;;;5.07;3.03;;;12.90;71.20;;;;;;21253874;27;20384;-58
2022/12/10 17:01:57;;;;;;;6.68;2.83;;;12.80;70.20;;;;;;21253208;27;20043;-58
2022/12/10 17:11:58;;;;;;;4.70;2.42;;;12.70;70.10;;;;;;21252927;27;20127;-58
2022/12/10 17:22:01;;;;;;;2.88;1.70;;;12.70;69.70;;;;;;21252403;27;20051;-58
2022/12/10 17:32:05;;;;;;;12.35;8.80;;;12.60;69.10;;;;;;21249970;27;20116;-57
2022/12/10 17:42:08;;;;;;;2.63;2.05;;;12.30;70.40;;;;;;21249658;27;20047;-57
2022/12/10 17:52:10;;;;;;;4.25;1.80;;;12.20;71.10;;;;;;21248740;27;20047;-58
2022/12/10 18:02:12;;;;;;;5.18;4.03;;;12.10;72.00;;;;;;21248940;27;20133;-62
2022/12/10 18:12:14;;;;;;;5.15;2.42;;;12.20;72.20;;;;;;21248159;27;20467;-58
2022/12/10 18:22:15;;;;;;;7.53;5.10;;;12.20;72.70;;;;;;21247871;27;20051;-59
2022/12/10 18:32:17;;;;;;;4.05;2.17;;;12.10;73.30;;;;;;21248100;27;20138;-56
2022/12/10 18:42:19;;;;;;;3.15;2.15;;;12.00;73.80;;;;;;21247272;27;20468;-57
2022/12/10 18:52:20;;;;;;;5.78;3.17;;;12.00;74.10;;;;;;21246747;27;20047;-57
2022/12/10 19:02:22;;;;;;;7.28;4.47;;;12.00;74.70;;;;;;21246055;27;20140;-60
2022/12/10 19:12:23;;;;;;;4.85;3.45;;;12.00;75.10;;;;;;21255418;27;20120;-58
2022/12/10 19:22:25;;;;;;;6.60;3.85;;;11.90;75.70;;;;;;21261814;27;20047;-65
2022/12/10 19:32:27;;;;;;;7.57;4.20;;;11.90;76.30;;;;;;21260801;27;20070;-60
2022/12/10 19:42:29;;;;;;;7.70;3.60;;;12.00;76.40;;;;;;21260274;27;20082;-58
2022/12/10 19:52:31;;;;;;;6.07;4.20;;;11.80;76.20;;;;;;21259213;27;20135;-60
2022/12/10 20:02:32;;;;;;;7.18;4.00;;;11.80;76.10;;;;;;21259228;27;20549;-57
2022/12/10 20:12:35;;;;;;;7.80;5.18;;;11.70;76.20;;;;;;21258467;27;20047;-58
2022/12/10 20:22:37;;;;;;;5.60;3.75;;;11.70;76.20;;;;;;21255725;27;20134;-58
2022/12/10 20:32:38;;;;;;;7.35;4.07;;;11.70;76.10;;;;;;21259251;27;20047;-58
2022/12/10 20:42:40;;;;;;;6.38;3.20;;;11.60;76.50;;;;;;21257127;27;20180;-59
2022/12/10 20:52:42;;;;;;;5.55;3.20;;;11.60;76.50;;;;;;21253491;27;20051;-59
2022/12/10 21:02:44;;;;;;;5.85;3.65;;;11.70;76.50;;;;;;21253281;27;20131;-59
2022/12/10 21:12:46;;;;;;;5.25;3.20;;;11.60;76.30;;;;;;21234760;27;20047;-59
2022/12/10 21:22:48;;;;;;;5.40;2.60;;;11.70;75.70;;;;;;21251021;27;20046;-62
2022/12/10 21:32:50;;;;;;;5.95;2.92;;;11.40;74.80;;;;;;21250450;27;20411;-61
2022/12/10 21:53:14;;;;;;;8.25;2.63;;;11.30;73.70;;;;;;21249993;27;20047;-58
2022/12/10 22:03:18;;;;;;;5.50;2.10;;;11.30;71.40;;;;;;21248817;27;20055;-63
2022/12/10 22:13:22;;;;;;;6.57;2.47;;;11.30;69.70;;;;;;21249337;27;20047;-58
2022/12/10 22:23:26;;;;;;;5.68;2.33;;;11.20;69.80;;;;;;21248059;27;20057;-62
2022/12/10 22:33:29;;;;;;;5.90;2.33;;;11.20;70.00;;;;;;21203640;28;20051;-60
2022/12/10 22:43:32;;;;;;;5.90;2.20;;;11.10;70.70;;;;;;21164935;28;20047;-58
2022/12/10 22:53:35;;;;;;;5.85;1.98;;;11.10;70.50;;;;;;21179068;28;20055;-57
2022/12/10 23:03:37;;;;;;;3.40;1.73;;;11.00;70.50;;;;;;21177793;28;20143;-60
2022/12/10 23:13:40;;;;;;;5.78;2.13;;;11.00;69.50;;;;;;21177626;28;20051;-60
2022/12/10 23:23:44;;;;;;;7.93;2.28;;;11.00;69.20;;;;;;21177122;28;20488;-61
2022/12/10 23:33:46;;;;;;;6.80;2.45;;;11.00;69.40;;;;;;21175380;28;20411;-58
2022/12/10 23:43:48;;;;;;;5.82;1.75;;;11.00;69.00;;;;;;21174982;28;20051;-59
2022/12/10 23:53:50;;;;;;;6.47;2.33;;;11.10;68.80;;;;;;21172540;28;20059;-57
